createdAt,value
2023-04-08T00:01:55.873Z,5.13
2023-04-08T00:04:22.411Z,8.75
2023-04-08T00:06:48.938Z,7.53
2023-04-08T00:09:15.353Z,6.85
2023-04-08T00:11:41.743Z,6.50
2023-04-08T00:14:08.182Z,6.72
2023-04-08T00:16:35.186Z,6.65
2023-04-08T00:19:01.669Z,8.20
2023-04-08T00:21:28.111Z,6.00
2023-04-08T00:23:54.506Z,7.00
2023-04-08T00:26:21.005Z,9.32
2023-04-08T00:28:47.815Z,8.27
2023-04-08T00:31:14.588Z,6.80
2023-04-08T00:33:41.004Z,8.68
2023-04-08T00:36:07.418Z,7.13
2023-04-08T00:38:33.846Z,7.55
2023-04-08T00:41:00.288Z,8.43
2023-04-08T00:43:26.674Z,9.63
2023-04-08T00:45:53.152Z,7.63
2023-04-08T00:48:19.576Z,7.63
2023-04-08T00:50:46.037Z,7.68
2023-04-08T00:53:12.479Z,8.13
2023-04-08T00:55:38.873Z,7.35
2023-04-08T00:58:05.257Z,7.60
2023-04-08T01:00:31.735Z,6.97
2023-04-08T01:02:58.272Z,7.25
2023-04-08T01:05:24.742Z,9.10
2023-04-08T01:07:51.190Z,8.85
2023-04-08T01:10:17.640Z,7.55
2023-04-08T01:12:44.099Z,7.75
2023-04-08T01:15:10.539Z,8.55
2023-04-08T01:17:36.959Z,8.25
2023-04-08T01:20:03.375Z,9.25
2023-04-08T01:22:29.787Z,7.93
2023-04-08T01:24:56.187Z,9.93
2023-04-08T01:27:22.608Z,7.57
2023-04-08T01:29:49.001Z,7.90
2023-04-08T01:32:15.377Z,8.45
2023-04-08T01:34:41.830Z,8.13
2023-04-08T01:37:08.230Z,8.15
2023-04-08T01:39:34.678Z,8.40
2023-04-08T01:42:01.130Z,7.90
2023-04-08T01:44:27.605Z,7.25
2023-04-08T01:46:54.041Z,8.90
2023-04-08T01:49:20.468Z,8.43
2023-04-08T01:51:46.864Z,7.80
2023-04-08T01:54:13.233Z,7.57
2023-04-08T01:56:39.692Z,7.15
2023-04-08T01:59:06.098Z,8.60
2023-04-08T02:01:32.735Z,8.68
2023-04-08T02:03:59.408Z,6.97
2023-04-08T02:06:25.868Z,7.45
2023-04-08T02:08:52.541Z,6.80
2023-04-08T02:11:19.144Z,6.47
2023-04-08T02:13:45.510Z,7.03
2023-04-08T02:16:11.992Z,5.70
2023-04-08T02:18:38.410Z,6.78
2023-04-08T02:21:04.792Z,6.97
2023-04-08T02:23:31.171Z,6.68
2023-04-08T02:25:57.613Z,5.97
2023-04-08T02:28:23.985Z,6.40
2023-04-08T02:30:50.455Z,6.93
2023-04-08T02:33:16.850Z,6.78
2023-04-08T02:35:43.292Z,6.35
2023-04-08T02:38:09.751Z,7.38
2023-04-08T02:40:36.212Z,6.60
2023-04-08T02:43:02.621Z,7.20
2023-04-08T02:45:29.036Z,7.63
2023-04-08T02:47:55.548Z,7.28
2023-04-08T02:50:22.018Z,7.13
2023-04-08T02:52:48.417Z,7.88
2023-04-08T02:55:14.769Z,6.20
2023-04-08T02:57:41.133Z,7.90
2023-04-08T03:00:07.514Z,7.95
2023-04-08T03:02:34.039Z,6.63
2023-04-08T03:05:00.561Z,6.85
2023-04-08T03:07:26.977Z,7.60
2023-04-08T03:09:53.373Z,6.50
2023-04-08T03:12:19.771Z,6.75
2023-04-08T03:14:46.153Z,6.15
2023-04-08T03:17:12.577Z,6.90
2023-04-08T03:19:39.029Z,5.47
2023-04-08T03:22:05.486Z,6.00
2023-04-08T03:24:31.935Z,5.68
2023-04-08T03:26:58.366Z,6.80
2023-04-08T03:29:24.795Z,7.20
2023-04-08T03:31:51.624Z,6.18
2023-04-08T03:34:18.071Z,5.60
2023-04-08T03:36:44.460Z,5.57
2023-04-08T03:39:10.896Z,6.57
2023-04-08T03:41:37.355Z,5.55
2023-04-08T03:44:03.743Z,6.53
2023-04-08T03:46:30.256Z,8.60
2023-04-08T03:48:56.758Z,6.32
2023-04-08T03:51:23.150Z,6.63
2023-04-08T03:53:49.535Z,6.05
2023-04-08T03:56:15.908Z,5.40
2023-04-08T03:58:42.329Z,5.25
2023-04-08T04:01:08.734Z,5.97
2023-04-08T04:03:35.248Z,6.38
2023-04-08T04:06:01.739Z,6.45
2023-04-08T04:08:28.123Z,7.10
2023-04-08T04:10:54.549Z,6.55
2023-04-08T04:13:20.994Z,6.30
2023-04-08T04:15:47.493Z,6.45
2023-04-08T04:18:13.978Z,6.82
2023-04-08T04:20:40.386Z,6.85
2023-04-08T04:23:06.812Z,7.57
2023-04-08T04:25:33.277Z,6.65
2023-04-08T04:27:59.674Z,6.70
2023-04-08T04:30:26.076Z,6.38
2023-04-08T04:32:52.562Z,7.80
2023-04-08T04:35:19.071Z,6.30
2023-04-08T04:37:45.456Z,7.18
2023-04-08T04:40:11.887Z,6.43
2023-04-08T04:42:38.301Z,5.97
2023-04-08T04:45:04.692Z,5.85
2023-04-08T04:47:31.164Z,7.25
2023-04-08T04:49:57.592Z,6.10
2023-04-08T04:52:23.991Z,6.72
2023-04-08T04:54:50.375Z,6.03
2023-04-08T04:57:16.810Z,6.07
2023-04-08T04:59:43.253Z,6.28
2023-04-08T05:02:09.768Z,7.45
2023-04-08T05:04:36.252Z,6.43
2023-04-08T05:07:02.706Z,6.28
2023-04-08T05:09:29.154Z,6.50
2023-04-08T05:11:55.569Z,5.80
2023-04-08T05:14:21.953Z,6.03
2023-04-08T05:16:48.386Z,5.20
2023-04-08T05:19:14.843Z,5.30
2023-04-08T05:21:41.281Z,6.22
2023-04-08T05:24:07.724Z,5.95
2023-04-08T05:26:34.145Z,6.07
2023-04-08T05:29:00.543Z,6.55
2023-04-08T05:31:27.040Z,5.85
2023-04-08T05:33:53.444Z,6.28
2023-04-08T05:36:19.887Z,6.22
2023-04-08T05:38:46.318Z,4.38
2023-04-08T05:41:12.734Z,6.05
2023-04-08T05:43:39.108Z,6.15
2023-04-08T05:46:05.548Z,6.18
2023-04-08T05:48:32.016Z,5.57
2023-04-08T05:50:58.430Z,7.22
2023-04-08T05:53:24.827Z,5.78
2023-04-08T05:55:51.262Z,4.82
2023-04-08T05:58:17.701Z,5.25
2023-04-08T06:00:44.151Z,4.85
2023-04-08T06:03:10.838Z,5.40
2023-04-08T06:05:37.410Z,6.32
2023-04-08T06:08:03.792Z,4.95
2023-04-08T06:10:30.249Z,5.68
2023-04-08T06:12:56.780Z,6.35
2023-04-08T06:15:23.212Z,5.15
2023-04-08T06:17:49.605Z,6.93
2023-04-08T06:20:16.081Z,6.53
2023-04-08T06:22:42.483Z,8.35
2023-04-08T06:25:08.932Z,7.47
2023-04-08T06:27:35.555Z,7.63
2023-04-08T06:30:02.084Z,8.25
2023-04-08T06:32:28.549Z,6.45
2023-04-08T06:34:55.013Z,6.60
2023-04-08T06:37:21.487Z,6.35
2023-04-08T06:39:48.019Z,6.47
2023-04-08T06:42:14.466Z,6.65
2023-04-08T06:44:40.926Z,6.22
2023-04-08T06:47:07.316Z,5.13
2023-04-08T06:49:33.743Z,7.68
2023-04-08T06:52:00.201Z,6.57
2023-04-08T06:54:26.652Z,7.75
2023-04-08T06:56:53.048Z,5.78
2023-04-08T06:59:19.486Z,6.03
2023-04-08T07:01:46.000Z,6.82
2023-04-08T07:04:12.647Z,5.63
2023-04-08T07:06:39.117Z,5.75
2023-04-08T07:09:05.487Z,6.95
2023-04-08T07:11:31.981Z,5.32
2023-04-08T07:13:58.449Z,5.28
2023-04-08T07:16:25.006Z,6.15
2023-04-08T07:18:51.613Z,5.97
2023-04-08T07:21:18.258Z,6.28
2023-04-08T07:23:44.708Z,7.75
2023-04-08T07:26:11.168Z,5.95
2023-04-08T07:28:37.585Z,8.32
2023-04-08T07:31:04.013Z,6.22
2023-04-08T07:33:30.526Z,8.30
2023-04-08T07:35:57.029Z,6.28
2023-04-08T07:38:23.468Z,7.00
2023-04-08T07:40:49.860Z,5.50
2023-04-08T07:43:16.238Z,6.97
2023-04-08T07:45:42.732Z,8.15
2023-04-08T07:48:09.210Z,8.10
2023-04-08T07:50:35.691Z,7.07
2023-04-08T07:53:23.859Z,6.35
2023-04-08T07:55:50.403Z,7.10
2023-04-08T07:58:16.956Z,7.38
2023-04-08T08:00:43.507Z,7.50
2023-04-08T08:03:10.011Z,7.05
2023-04-08T08:05:36.513Z,7.70
2023-04-08T08:08:02.978Z,7.75
2023-04-08T08:10:29.439Z,7.53
2023-04-08T08:12:55.859Z,8.15
2023-04-08T08:15:22.266Z,7.63
2023-04-08T08:17:48.734Z,7.20
2023-04-08T08:20:15.140Z,8.02
2023-04-08T08:22:50.922Z,8.10
2023-04-08T08:25:25.472Z,7.25
2023-04-08T08:27:52.594Z,6.93
2023-04-08T08:30:18.978Z,10.32
2023-04-08T08:32:45.399Z,7.32
2023-04-08T08:35:11.890Z,8.10
2023-04-08T08:37:38.327Z,8.38
2023-04-08T08:40:04.755Z,7.07
2023-04-08T08:42:32.268Z,7.93
2023-04-08T08:45:00.315Z,8.65
2023-04-08T08:47:26.818Z,7.80
2023-04-08T08:49:53.346Z,7.28
2023-04-08T08:52:19.780Z,8.88
2023-04-08T08:54:46.177Z,6.72
2023-04-08T08:57:12.600Z,7.15
2023-04-08T08:59:39.055Z,8.55
2023-04-08T09:02:05.536Z,11.00
2023-04-08T09:04:32.226Z,9.15
2023-04-08T09:06:58.677Z,6.55
2023-04-08T09:09:25.041Z,7.47
2023-04-08T09:11:51.436Z,6.78
2023-04-08T09:14:17.812Z,6.75
2023-04-08T09:16:44.438Z,6.60
2023-04-08T09:19:11.011Z,7.55
2023-04-08T09:21:37.420Z,7.30
2023-04-08T09:24:03.884Z,8.60
2023-04-08T09:26:30.320Z,8.90
2023-04-08T09:28:56.720Z,9.70
2023-04-08T09:31:23.177Z,8.18
2023-04-08T09:33:49.787Z,9.07
2023-04-08T09:36:16.425Z,7.65
2023-04-08T09:38:43.063Z,8.05
2023-04-08T09:41:09.434Z,9.00
2023-04-08T09:43:35.888Z,8.45
2023-04-08T09:46:02.353Z,6.90
2023-04-08T09:48:28.751Z,7.18
2023-04-08T09:50:55.162Z,7.72
2023-04-08T09:53:23.138Z,7.38
2023-04-08T09:55:49.758Z,7.35
2023-04-08T09:58:16.400Z,7.05
2023-04-08T10:00:42.878Z,6.22
2023-04-08T10:03:09.411Z,7.85
2023-04-08T10:05:36.082Z,8.02
2023-04-08T10:08:02.451Z,8.10
2023-04-08T10:10:28.855Z,9.32
2023-04-08T10:12:55.246Z,7.38
2023-04-08T10:15:21.620Z,7.80
2023-04-08T10:17:48.157Z,8.07
2023-04-08T10:20:14.560Z,7.90
2023-04-08T10:22:41.002Z,7.55
2023-04-08T10:25:07.393Z,7.22
2023-04-08T10:27:33.793Z,8.00
2023-04-08T10:30:00.190Z,6.70
2023-04-08T10:32:26.631Z,6.60
2023-04-08T10:34:53.041Z,7.68
2023-04-08T10:37:19.424Z,8.55
2023-04-08T10:39:45.867Z,10.00
2023-04-08T10:42:12.279Z,9.45
2023-04-08T10:44:38.730Z,7.78
2023-04-08T10:47:05.161Z,8.80
2023-04-08T10:49:31.607Z,7.55
2023-04-08T10:51:57.995Z,8.70
2023-04-08T10:54:24.440Z,9.73
2023-04-08T10:56:50.858Z,9.73
2023-04-08T10:59:17.250Z,10.18
2023-04-08T11:01:43.717Z,11.95
2023-04-08T11:04:10.287Z,11.57
2023-04-08T11:06:36.741Z,10.77
2023-04-08T11:09:03.135Z,12.88
2023-04-08T11:11:29.693Z,12.85
2023-04-08T11:13:56.329Z,12.50
2023-04-08T11:16:23.349Z,12.77
2023-04-08T11:18:49.963Z,13.85
2023-04-08T11:21:16.348Z,11.82
2023-04-08T11:23:42.804Z,12.63
2023-04-08T11:26:09.263Z,12.38
2023-04-08T11:28:35.695Z,10.20
2023-04-08T11:31:02.138Z,10.95
2023-04-08T11:33:28.650Z,11.90
2023-04-08T11:35:55.097Z,12.43
2023-04-08T11:38:21.549Z,13.40
2023-04-08T11:40:48.008Z,13.25
2023-04-08T11:43:14.456Z,14.02
2023-04-08T11:45:40.843Z,13.57
2023-04-08T11:48:07.241Z,12.20
2023-04-08T11:50:33.640Z,15.95
2023-04-08T11:53:00.033Z,15.57
2023-04-08T11:55:26.503Z,14.63
2023-04-08T11:57:52.926Z,12.48
2023-04-08T12:00:19.408Z,12.23
2023-04-08T12:02:45.873Z,12.70
2023-04-08T12:05:12.547Z,13.52
2023-04-08T12:07:39.105Z,13.63
2023-04-08T12:10:05.493Z,13.00
2023-04-08T12:12:31.914Z,12.35
2023-04-08T12:14:58.308Z,10.40
2023-04-08T12:17:24.772Z,12.68
2023-04-08T12:19:51.158Z,13.15
2023-04-08T12:22:17.604Z,11.75
2023-04-08T12:24:43.986Z,13.85
2023-04-08T12:27:10.410Z,13.82
2023-04-08T12:29:36.809Z,13.63
2023-04-08T12:32:03.274Z,11.55
2023-04-08T12:34:29.741Z,11.85
2023-04-08T12:36:56.263Z,13.13
2023-04-08T12:39:22.694Z,11.68
2023-04-08T12:41:49.109Z,11.38
2023-04-08T12:44:15.514Z,10.48
2023-04-08T12:46:41.985Z,13.18
2023-04-08T12:49:08.823Z,11.68
2023-04-08T12:51:35.502Z,14.30
2023-04-08T12:54:02.052Z,11.35
2023-04-08T12:56:28.466Z,11.30
2023-04-08T12:58:54.907Z,12.27
2023-04-08T13:01:21.392Z,10.55
2023-04-08T13:03:47.941Z,12.43
2023-04-08T13:06:14.504Z,11.25
2023-04-08T13:08:40.937Z,10.13
2023-04-08T13:11:07.362Z,9.68
2023-04-08T13:13:33.792Z,11.40
2023-04-08T13:16:00.364Z,10.18
2023-04-08T13:18:26.865Z,10.23
2023-04-08T13:20:53.417Z,9.45
2023-04-08T13:23:19.801Z,8.38
2023-04-08T13:25:46.181Z,7.50
2023-04-08T13:28:12.574Z,8.02
2023-04-08T13:30:38.940Z,8.05
2023-04-08T13:33:05.433Z,8.65
2023-04-08T13:35:31.955Z,9.75
2023-04-08T13:37:58.351Z,10.93
2023-04-08T13:40:24.761Z,9.63
2023-04-08T13:42:51.158Z,8.93
2023-04-08T13:45:17.523Z,7.68
2023-04-08T13:47:44.028Z,9.60
2023-04-08T13:50:10.526Z,7.40
2023-04-08T13:52:36.988Z,9.05
2023-04-08T13:55:03.385Z,9.52
2023-04-08T13:57:29.777Z,11.98
2023-04-08T13:59:56.196Z,10.55
2023-04-08T14:02:22.720Z,9.98
2023-04-08T14:04:49.199Z,12.20
2023-04-08T14:07:15.629Z,12.73
2023-04-08T14:09:42.058Z,9.43
2023-04-08T14:12:08.437Z,8.63
2023-04-08T14:14:34.818Z,7.93
2023-04-08T14:17:01.306Z,7.00
2023-04-08T14:19:27.743Z,6.82
2023-04-08T14:21:54.135Z,7.53
2023-04-08T14:24:20.505Z,7.20
2023-04-08T14:26:46.954Z,9.15
2023-04-08T14:29:13.416Z,7.95
2023-04-08T14:31:39.831Z,8.60
2023-04-08T14:34:06.300Z,7.90
2023-04-08T14:36:32.766Z,8.02
2023-04-08T14:38:59.193Z,6.65
2023-04-08T14:41:25.624Z,7.43
2023-04-08T14:43:52.014Z,6.78
2023-04-08T14:46:18.513Z,6.20
2023-04-08T14:48:44.972Z,7.40
2023-04-08T14:51:11.476Z,6.13
2023-04-08T14:53:37.902Z,7.40
2023-04-08T14:56:04.361Z,7.82
2023-04-08T14:58:30.773Z,11.07
2023-04-08T15:00:57.203Z,8.25
2023-04-08T15:03:23.762Z,8.00
2023-04-08T15:05:50.566Z,7.18
2023-04-08T15:08:16.946Z,7.22
2023-04-08T15:10:43.395Z,8.50
2023-04-08T15:13:09.806Z,8.18
2023-04-08T15:15:36.310Z,7.28
2023-04-08T15:18:02.970Z,7.10
2023-04-08T15:20:29.416Z,8.27
2023-04-08T15:22:55.873Z,10.00
2023-04-08T15:25:22.385Z,9.13
2023-04-08T15:27:48.841Z,10.15
2023-04-08T15:30:15.312Z,9.98
2023-04-08T15:32:41.823Z,11.38
2023-04-08T15:35:08.294Z,8.60
2023-04-08T15:37:34.687Z,9.90
2023-04-08T15:40:01.186Z,9.10
2023-04-08T15:42:27.675Z,10.30
2023-04-08T15:44:54.181Z,9.98
2023-04-08T15:47:20.565Z,9.63
2023-04-08T15:49:47.032Z,9.20
2023-04-08T15:52:13.608Z,8.93
2023-04-08T15:54:40.053Z,10.35
2023-04-08T15:57:06.469Z,12.15
2023-04-08T15:59:32.878Z,10.60
2023-04-08T16:01:59.432Z,12.48
2023-04-08T16:04:26.022Z,10.82
2023-04-08T16:06:52.558Z,11.88
2023-04-08T16:09:18.964Z,11.18
2023-04-08T16:11:45.359Z,10.68
2023-04-08T16:14:11.777Z,11.25
2023-04-08T16:16:38.290Z,11.35
2023-04-08T16:19:04.837Z,12.73
2023-04-08T16:21:31.291Z,11.00
2023-04-08T16:23:57.742Z,11.57
2023-04-08T16:26:24.186Z,11.35
2023-04-08T16:28:50.888Z,10.40
2023-04-08T16:31:18.794Z,11.75
2023-04-08T16:33:46.434Z,10.15
2023-04-08T16:36:12.927Z,11.80
2023-04-08T16:38:39.402Z,11.10
2023-04-08T16:41:05.834Z,11.07
2023-04-08T16:43:32.267Z,9.35
2023-04-08T16:45:58.692Z,10.32
2023-04-08T16:48:25.135Z,11.13
2023-04-08T16:50:51.583Z,9.98
2023-04-08T16:53:18.080Z,9.57
2023-04-08T16:55:44.508Z,9.02
2023-04-08T16:58:10.992Z,8.80
2023-04-08T17:00:37.519Z,10.32
2023-04-08T17:03:04.356Z,10.38
2023-04-08T17:05:30.991Z,12.50
2023-04-08T17:07:57.521Z,10.60
2023-04-08T17:10:23.942Z,11.07
2023-04-08T17:12:50.824Z,11.82
2023-04-08T17:15:17.283Z,11.13
2023-04-08T17:17:43.690Z,10.68
2023-04-08T17:20:10.152Z,14.10
2023-04-08T17:22:36.621Z,10.45
2023-04-08T17:25:03.013Z,11.95
2023-04-08T17:27:29.407Z,11.45
2023-04-08T17:29:55.811Z,11.00
2023-04-08T17:32:22.297Z,10.15
2023-04-08T17:34:48.682Z,10.52
2023-04-08T17:37:15.061Z,10.98
2023-04-08T17:39:41.459Z,10.60
2023-04-08T17:42:07.913Z,9.35
2023-04-08T17:44:34.364Z,9.90
2023-04-08T17:47:00.772Z,10.02
2023-04-08T17:49:27.163Z,10.20
2023-04-08T17:51:53.567Z,10.93
2023-04-08T17:54:19.941Z,10.15
2023-04-08T17:56:47.796Z,9.98
2023-04-08T17:59:16.002Z,10.27
2023-04-08T18:01:42.489Z,10.38
2023-04-08T18:04:09.129Z,10.15
2023-04-08T18:06:35.587Z,10.52
2023-04-08T18:09:02.032Z,10.43
2023-04-08T18:11:28.409Z,11.65
2023-04-08T18:13:54.831Z,11.23
2023-04-08T18:16:21.248Z,11.00
2023-04-08T18:18:47.644Z,12.15
2023-04-08T18:21:14.062Z,12.02
2023-04-08T18:23:40.485Z,12.52
2023-04-08T18:26:06.875Z,12.18
2023-04-08T18:28:33.280Z,11.80
2023-04-08T18:30:59.714Z,11.55
2023-04-08T18:33:26.207Z,12.00
2023-04-08T18:35:52.817Z,13.55
2023-04-08T18:38:19.604Z,12.57
2023-04-08T18:40:46.089Z,11.48
2023-04-08T18:43:12.541Z,12.07
2023-04-08T18:45:38.954Z,12.25
2023-04-08T18:48:05.325Z,11.73
2023-04-08T18:50:31.767Z,12.20
2023-04-08T18:52:58.219Z,11.07
2023-04-08T18:55:24.627Z,12.02
2023-04-08T18:57:51.046Z,10.00
2023-04-08T19:00:17.488Z,10.00
2023-04-08T19:02:44.034Z,11.23
2023-04-08T19:05:10.633Z,11.27
2023-04-08T19:07:37.105Z,13.52
2023-04-08T19:10:03.508Z,12.82
2023-04-08T19:12:29.969Z,12.85
2023-04-08T19:14:56.389Z,11.35
2023-04-08T19:17:22.851Z,11.82
2023-04-08T19:19:49.374Z,13.50
2023-04-08T19:22:15.764Z,12.45
2023-04-08T19:24:42.230Z,13.20
2023-04-08T19:27:08.646Z,14.27
2023-04-08T19:29:35.033Z,14.93
2023-04-08T19:32:01.546Z,15.80
2023-04-08T19:34:28.026Z,15.57
2023-04-08T19:36:54.452Z,18.08
2023-04-08T19:39:20.861Z,15.10
2023-04-08T19:41:47.300Z,15.45
2023-04-08T19:44:13.710Z,15.75
2023-04-08T19:46:40.229Z,17.95
2023-04-08T19:49:06.717Z,17.20
2023-04-08T19:51:33.120Z,16.13
2023-04-08T19:53:59.507Z,15.25
2023-04-08T19:56:25.947Z,15.63
2023-04-08T19:58:52.613Z,15.40
2023-04-08T20:01:19.622Z,18.10
2023-04-08T20:03:46.135Z,17.52
2023-04-08T20:06:12.598Z,19.27
2023-04-08T20:08:39.052Z,21.95
2023-04-08T20:11:05.507Z,20.17
2023-04-08T20:13:31.987Z,22.10
2023-04-08T20:15:58.467Z,20.67
2023-04-08T20:18:24.901Z,22.58
2023-04-08T20:20:51.293Z,21.88
2023-04-08T20:23:17.695Z,26.27
2023-04-08T20:25:44.090Z,26.13
2023-04-08T20:28:10.522Z,25.05
2023-04-08T20:30:36.919Z,23.95
2023-04-08T20:33:03.406Z,24.02
2023-04-08T20:35:29.850Z,26.15
2023-04-08T20:37:56.289Z,26.50
2023-04-08T20:40:22.716Z,25.50
2023-04-08T20:42:49.155Z,25.40
2023-04-08T20:45:16.939Z,23.80
2023-04-08T20:47:43.438Z,23.45
2023-04-08T20:50:09.882Z,26.35
2023-04-08T20:52:36.341Z,26.70
2023-04-08T20:55:02.795Z,26.08
2023-04-08T20:57:29.207Z,26.40
2023-04-08T20:59:55.592Z,23.15
2023-04-08T21:02:22.153Z,23.35
2023-04-08T21:04:48.733Z,24.90
2023-04-08T21:07:15.212Z,21.33
2023-04-08T21:09:41.681Z,24.33
2023-04-08T21:12:08.106Z,20.77
2023-04-08T21:14:34.713Z,19.00
2023-04-08T21:17:01.098Z,25.05
2023-04-08T21:19:27.490Z,18.70
2023-04-08T21:21:53.902Z,20.73
2023-04-08T21:24:20.686Z,20.30
2023-04-08T21:26:47.470Z,20.80
2023-04-08T21:29:13.917Z,22.83
2023-04-08T21:31:40.407Z,23.73
2023-04-08T21:34:06.840Z,24.77
2023-04-08T21:36:33.300Z,24.83
2023-04-08T21:38:59.761Z,24.25
2023-04-08T21:41:27.214Z,24.75
2023-04-08T21:43:54.840Z,24.33
2023-04-08T21:46:21.432Z,25.98
2023-04-08T21:48:47.966Z,28.92
2023-04-08T21:51:14.448Z,28.50
2023-04-08T21:53:40.845Z,27.88
2023-04-08T21:56:07.299Z,30.27
2023-04-08T21:58:33.737Z,27.85
2023-04-08T22:01:00.204Z,27.33
2023-04-08T22:03:26.650Z,32.35
2023-04-08T22:05:53.117Z,28.98
2023-04-08T22:08:19.711Z,28.80
2023-04-08T22:10:46.201Z,24.83
2023-04-08T22:13:12.648Z,25.98
2023-04-08T22:15:39.087Z,27.60
2023-04-08T22:18:05.590Z,26.40
2023-04-08T22:20:32.018Z,25.48
2023-04-08T22:22:58.397Z,27.60
2023-04-08T22:25:24.850Z,24.67
2023-04-08T22:27:51.257Z,23.70
2023-04-08T22:30:17.661Z,21.98
2023-04-08T22:32:44.077Z,19.70
2023-04-08T22:35:10.519Z,19.20
2023-04-08T22:37:36.915Z,24.48
2023-04-08T22:40:03.387Z,24.42
2023-04-08T22:42:29.794Z,24.08
2023-04-08T22:44:56.225Z,22.98
2023-04-08T22:47:22.950Z,25.58
2023-04-08T22:49:49.746Z,22.05
2023-04-08T22:52:16.145Z,20.85
2023-04-08T22:54:42.555Z,20.38
2023-04-08T22:57:09.012Z,23.40
2023-04-08T22:59:35.394Z,19.50
2023-04-08T23:02:01.962Z,21.17
2023-04-08T23:04:28.525Z,18.33
2023-04-08T23:06:54.958Z,17.40
2023-04-08T23:09:21.398Z,16.02
2023-04-08T23:11:47.853Z,15.98
2023-04-08T23:14:14.263Z,19.08
2023-04-08T23:16:40.745Z,17.40
2023-04-08T23:19:07.217Z,17.33
2023-04-08T23:21:33.646Z,19.23
2023-04-08T23:24:00.073Z,15.48
2023-04-08T23:26:26.620Z,20.77
2023-04-08T23:28:53.324Z,19.00
2023-04-08T23:31:19.985Z,17.80
2023-04-08T23:33:46.533Z,16.90
2023-04-08T23:36:13.032Z,16.90
2023-04-08T23:38:39.459Z,18.58
2023-04-08T23:41:05.905Z,17.15
2023-04-08T23:43:32.311Z,15.30
2023-04-08T23:45:58.691Z,16.77
2023-04-08T23:48:25.076Z,15.48
2023-04-08T23:50:51.521Z,17.30
2023-04-08T23:53:17.910Z,13.85
2023-04-08T23:55:44.291Z,16.70
2023-04-08T23:58:10.754Z,16.17
